Time;durP1;ratioP1;P1;durP2;ratioP2;P2;SDS_P1;SDS_P2;PMS_P1;PMS_P2;Temp;Humidity;BMP_temperature;BMP_pressure;BME280_temperature;BME280_humidity;BME280_pressure;Samples;Min_cycle;Max_cycle;Signal;HPM_P1;HPM_P2
2023/04/05 00:01:34;;;;;;;5.20;3.63;;;;;;;;;;4983584;28;20217;-81
2023/04/05 00:04:02;;;;;;;4.37;3.00;;;;;;;;;;4992240;28;20985;-81
2023/04/05 00:06:28;;;;;;;4.83;3.30;;;;;;;;;;4986621;28;20234;-81
2023/04/05 00:08:56;;;;;;;4.47;2.87;;;;;;;;;;4989122;28;20226;-81
2023/04/05 00:11:24;;;;;;;4.63;3.13;;;;;;;;;;4980131;28;20791;-80
2023/04/05 00:13:50;;;;;;;5.50;3.07;;;;;;;;;;4994290;28;20294;-80
2023/04/05 00:16:16;;;;;;;4.63;3.00;;;;;;;;;;4990485;28;20233;-80
2023/04/05 00:18:48;;;;;;;3.13;2.83;;;;;;;;;;4990302;28;20240;-80
2023/04/05 00:21:15;;;;;;;2.37;1.90;;;;;;;;;;5001012;28;20229;-80
2023/04/05 00:23:41;;;;;;;2.53;1.80;;;;;;;;;;4989719;28;20226;-80
2023/04/05 00:26:06;;;;;;;3.80;1.80;;;;;;;;;;4998323;28;20225;-81
2023/04/05 00:28:33;;;;;;;2.67;1.60;;;;;;;;;;4996531;28;20242;-81
2023/04/05 00:31:01;;;;;;;2.27;1.53;;;;;;;;;;4983449;28;20229;-82
2023/04/05 00:33:26;;;;;;;2.50;1.80;;;;;;;;;;4979164;28;20226;-80
2023/04/05 00:35:52;;;;;;;2.67;1.70;;;;;;;;;;4981822;28;20244;-80
2023/04/05 00:38:17;;;;;;;3.80;1.87;;;;;;;;;;4993548;28;20230;-80
2023/04/05 00:40:47;;;;;;;2.10;1.67;;;;;;;;;;4986716;28;20364;-80
2023/04/05 00:43:17;;;;;;;3.00;1.40;;;;;;;;;;4976642;28;20305;-81
2023/04/05 00:45:43;;;;;;;2.00;1.57;;;;;;;;;;4978233;28;20238;-81
2023/04/05 00:48:13;;;;;;;3.50;1.73;;;;;;;;;;4950910;28;20227;-81
2023/04/05 00:50:42;;;;;;;2.63;1.77;;;;;;;;;;4998246;28;20233;-81
2023/04/05 00:53:09;;;;;;;2.40;1.70;;;;;;;;;;4984413;28;20221;-80
2023/04/05 00:55:35;;;;;;;2.00;1.40;;;;;;;;;;4990092;28;20214;-80
2023/04/05 00:58:00;;;;;;;2.80;2.00;;;;;;;;;;4976561;28;20234;-81
2023/04/05 01:00:26;;;;;;;2.30;1.80;;;;;;;;;;4995758;28;20596;-81
2023/04/05 01:02:53;;;;;;;5.10;2.13;;;;;;;;;;4980503;28;20233;-80
2023/04/05 01:05:44;;;;;;;5.63;1.90;;;;;;;;;;4982269;28;20233;-80
2023/04/05 01:08:15;;;;;;;3.03;1.90;;;;;;;;;;4993023;28;20214;-79
2023/04/05 01:10:45;;;;;;;3.27;1.57;;;;;;;;;;4992406;28;20229;-82
2023/04/05 01:13:11;;;;;;;4.40;1.83;;;;;;;;;;4982482;28;20238;-82
2023/04/05 01:15:37;;;;;;;2.00;1.80;;;;;;;;;;4982741;28;20228;-82
2023/04/05 01:18:03;;;;;;;2.87;1.97;;;;;;;;;;4983302;28;20268;-82
2023/04/05 01:20:32;;;;;;;2.97;1.93;;;;;;;;;;4981776;28;20337;-82
2023/04/05 01:23:24;;;;;;;5.13;1.90;;;;;;;;;;4980861;28;20691;-81
2023/04/05 01:26:02;;;;;;;2.20;1.90;;;;;;;;;;4974877;28;20586;-81
2023/04/05 01:29:08;;;;;;;3.03;1.93;;;;;;;;;;4991449;28;20650;-81
2023/04/05 01:31:54;;;;;;;4.20;1.93;;;;;;;;;;4990585;28;20234;-80
2023/04/05 01:34:38;;;;;;;4.13;1.90;;;;;;;;;;4990305;28;20277;-81
2023/04/05 01:37:07;;;;;;;3.37;1.80;;;;;;;;;;4993655;28;20234;-82
2023/04/05 01:39:34;;;;;;;2.93;1.87;;;;;;;;;;4978594;28;20929;-82
2023/04/05 01:42:00;;;;;;;2.37;1.77;;;;;;;;;;4980941;28;20226;-82
2023/04/05 01:44:28;;;;;;;2.10;1.80;;;;;;;;;;4993053;28;20645;-82
2023/04/05 01:46:54;;;;;;;1.90;1.80;;;;;;;;;;4979873;28;20222;-82
2023/04/05 01:49:21;;;;;;;1.93;1.67;;;;;;;;;;4988393;28;20298;-81
2023/04/05 01:51:49;;;;;;;2.13;1.80;;;;;;;;;;4980802;28;20230;-82
2023/04/05 01:54:17;;;;;;;3.50;1.83;;;;;;;;;;4979801;28;20211;-82
2023/04/05 01:56:43;;;;;;;1.70;1.60;;;;;;;;;;4972141;28;20235;-82
2023/04/05 01:59:11;;;;;;;3.73;2.90;;;;;;;;;;4974826;28;20222;-82
2023/04/05 02:01:37;;;;;;;6.37;3.03;;;;;;;;;;4978133;28;20713;-82
2023/04/05 02:04:02;;;;;;;7.10;3.40;;;;;;;;;;4975008;28;20230;-82
2023/04/05 02:06:30;;;;;;;7.40;4.57;;;;;;;;;;4979167;28;20227;-82
2023/04/05 02:09:02;;;;;;;7.43;4.90;;;;;;;;;;4991262;28;20274;-81
2023/04/05 02:11:30;;;;;;;6.63;3.53;;;;;;;;;;4991211;28;20233;-81
2023/04/05 02:13:57;;;;;;;3.47;2.47;;;;;;;;;;4975934;28;20282;-81
2023/04/05 02:16:24;;;;;;;5.57;3.40;;;;;;;;;;4957913;28;20242;-81
2023/04/05 02:18:50;;;;;;;9.53;4.17;;;;;;;;;;4989646;28;20276;-81
2023/04/05 02:21:20;;;;;;;4.67;3.17;;;;;;;;;;4982838;28;20241;-81
2023/04/05 02:23:46;;;;;;;2.13;1.93;;;;;;;;;;4992196;28;20222;-81
2023/04/05 02:26:11;;;;;;;2.73;2.07;;;;;;;;;;4986391;28;20218;-80
2023/04/05 02:28:37;;;;;;;3.37;2.30;;;;;;;;;;4997709;28;20619;-81
2023/04/05 02:31:07;;;;;;;4.53;2.07;;;;;;;;;;4992391;28;20293;-80
2023/04/05 02:33:33;;;;;;;7.13;4.00;;;;;;;;;;4989333;28;20218;-81
2023/04/05 02:36:10;;;;;;;4.83;3.10;;;;;;;;;;4979200;28;20278;-81
2023/04/05 02:38:38;;;;;;;4.67;2.87;;;;;;;;;;4988698;28;20718;-80
2023/04/05 02:41:06;;;;;;;3.97;2.67;;;;;;;;;;4997616;28;20297;-81
2023/04/05 02:43:34;;;;;;;6.03;3.10;;;;;;;;;;5001549;28;20234;-80
2023/04/05 02:46:01;;;;;;;4.50;2.83;;;;;;;;;;4999030;28;20586;-81
2023/04/05 02:48:27;;;;;;;3.50;2.30;;;;;;;;;;5002911;28;20226;-81
2023/04/05 02:50:54;;;;;;;2.27;1.93;;;;;;;;;;4993936;28;20223;-81
2023/04/05 02:53:20;;;;;;;3.23;1.87;;;;;;;;;;4988506;28;20229;-81
2023/04/05 02:55:53;;;;;;;2.30;1.83;;;;;;;;;;4995447;28;20238;-81
2023/04/05 02:58:20;;;;;;;2.33;1.80;;;;;;;;;;4976923;28;20308;-81
2023/04/05 03:00:51;;;;;;;2.67;1.97;;;;;;;;;;4998786;28;20231;-81
2023/04/05 03:03:23;;;;;;;4.83;1.80;;;;;;;;;;4971943;28;20491;-82
2023/04/05 03:06:03;;;;;;;3.20;2.27;;;;;;;;;;5003950;28;20289;-80
2023/04/05 03:08:45;;;;;;;3.47;2.20;;;;;;;;;;4989974;28;20246;-80
2023/04/05 03:11:13;;;;;;;3.43;2.37;;;;;;;;;;4996642;28;20236;-81
2023/04/05 03:13:42;;;;;;;3.90;2.77;;;;;;;;;;5007772;28;20270;-81
2023/04/05 03:16:14;;;;;;;4.30;2.40;;;;;;;;;;4991530;28;20226;-81
2023/04/05 03:18:41;;;;;;;3.50;2.93;;;;;;;;;;4987232;28;20231;-80
2023/04/05 03:21:11;;;;;;;3.37;2.37;;;;;;;;;;4983004;28;20289;-81
2023/04/05 03:23:45;;;;;;;4.03;2.80;;;;;;;;;;4990481;28;20575;-81
2023/04/05 03:26:14;;;;;;;4.10;2.90;;;;;;;;;;4979940;28;20245;-81
2023/04/05 03:28:45;;;;;;;2.03;1.70;;;;;;;;;;4993197;28;20262;-81
2023/04/05 03:31:13;;;;;;;2.53;1.90;;;;;;;;;;4959281;28;20226;-81
2023/04/05 03:33:39;;;;;;;4.13;2.03;;;;;;;;;;4968418;28;20750;-81
2023/04/05 03:36:05;;;;;;;2.80;2.20;;;;;;;;;;4987078;28;20226;-81
2023/04/05 03:38:36;;;;;;;2.97;2.07;;;;;;;;;;4986711;28;20226;-80
2023/04/05 03:41:12;;;;;;;8.07;4.73;;;;;;;;;;4983528;28;20257;-81
2023/04/05 03:43:40;;;;;;;5.57;3.33;;;;;;;;;;5001995;28;20234;-81
2023/04/05 03:46:06;;;;;;;6.20;3.60;;;;;;;;;;4970839;28;20197;-81
2023/04/05 03:48:31;;;;;;;2.20;2.00;;;;;;;;;;4992726;28;20257;-81
2023/04/05 03:50:57;;;;;;;2.07;1.80;;;;;;;;;;4980067;28;20228;-81
2023/04/05 03:53:23;;;;;;;2.70;2.00;;;;;;;;;;4997318;28;20588;-81
2023/04/05 03:55:54;;;;;;;2.20;1.93;;;;;;;;;;4984508;28;20361;-81
2023/04/05 03:58:32;;;;;;;1.97;1.70;;;;;;;;;;4995928;28;20223;-81
2023/04/05 04:00:58;;;;;;;3.70;2.30;;;;;;;;;;4997542;28;20246;-80
2023/04/05 04:03:24;;;;;;;3.53;2.43;;;;;;;;;;4984053;28;20214;-80
2023/04/05 04:05:51;;;;;;;3.70;2.30;;;;;;;;;;4985832;28;20237;-81
2023/04/05 04:08:19;;;;;;;2.47;2.03;;;;;;;;;;4988636;28;20225;-81
2023/04/05 04:10:45;;;;;;;6.80;3.30;;;;;;;;;;4997551;28;20222;-81
2023/04/05 04:13:21;;;;;;;6.77;3.30;;;;;;;;;;4998532;28;20222;-81
2023/04/05 04:15:55;;;;;;;5.00;3.00;;;;;;;;;;4994714;28;20240;-81
2023/04/05 04:18:40;;;;;;;2.53;2.30;;;;;;;;;;4962670;28;20290;-81
2023/04/05 04:21:31;;;;;;;3.33;2.50;;;;;;;;;;4971376;28;20286;-81
2023/04/05 04:24:20;;;;;;;5.20;2.83;;;;;;;;;;4975170;28;20218;-79
2023/04/05 04:27:00;;;;;;;3.13;2.30;;;;;;;;;;4970484;28;20222;-81
2023/04/05 04:29:45;;;;;;;2.80;2.13;;;;;;;;;;4984686;28;20210;-81
2023/04/05 04:35:37;;;;;;;3.20;2.17;;;;;;;;;;4976694;28;20246;-81
2023/04/05 04:38:24;;;;;;;3.20;2.00;;;;;;;;;;5006832;23;20228;-73
2023/04/05 04:41:10;;;;;;;2.90;2.20;;;;;;;;;;4970194;28;20238;-73
2023/04/05 04:43:46;;;;;;;2.50;2.10;;;;;;;;;;4974463;28;20290;-73
2023/04/05 04:46:33;;;;;;;3.40;2.13;;;;;;;;;;4970270;28;20221;-73
2023/04/05 04:49:05;;;;;;;2.20;2.00;;;;;;;;;;4956103;28;20445;-73
2023/04/05 04:51:35;;;;;;;2.70;2.17;;;;;;;;;;4956887;28;20284;-73
2023/04/05 04:54:01;;;;;;;3.30;2.47;;;;;;;;;;5000565;23;20234;-81
2023/04/05 04:56:29;;;;;;;3.57;2.07;;;;;;;;;;5008830;28;20220;-81
2023/04/05 04:58:57;;;;;;;4.03;2.30;;;;;;;;;;5004443;28;20221;-82
2023/04/05 05:01:23;;;;;;;2.33;2.13;;;;;;;;;;5001094;28;20231;-81
2023/04/05 05:03:50;;;;;;;2.50;2.30;;;;;;;;;;5008293;28;20705;-81
2023/04/05 05:06:20;;;;;;;3.03;2.30;;;;;;;;;;5021334;28;20220;-81
2023/04/05 05:08:47;;;;;;;2.20;2.00;;;;;;;;;;4972337;23;20306;-73
2023/04/05 05:11:12;;;;;;;2.70;1.70;;;;;;;;;;4965548;28;20668;-73
2023/04/05 05:13:38;;;;;;;4.07;2.47;;;;;;;;;;4963692;28;20503;-73
2023/04/05 05:16:04;;;;;;;4.40;2.40;;;;;;;;;;4980572;28;20230;-73
2023/04/05 05:18:32;;;;;;;3.00;2.40;;;;;;;;;;4964530;28;20707;-73
2023/04/05 05:21:00;;;;;;;6.87;5.10;;;;;;;;;;4971130;28;20742;-73
2023/04/05 05:23:28;;;;;;;4.60;3.23;;;;;;;;;;4957110;28;20704;-73
2023/04/05 05:26:05;;;;;;;3.60;3.30;;;;;;;;;;4973358;28;20232;-74
2023/04/05 05:28:32;;;;;;;5.20;3.70;;;;;;;;;;4975582;28;20220;-74
2023/04/05 05:30:58;;;;;;;7.73;3.50;;;;;;;;;;4990666;28;20232;-74
2023/04/05 05:33:24;;;;;;;5.63;4.97;;;;;;;;;;4994567;28;20221;-74
2023/04/05 05:35:52;;;;;;;5.80;5.30;;;;;;;;;;4976392;28;20234;-74
2023/04/05 05:38:17;;;;;;;6.10;2.90;;;;;;;;;;4975278;28;20222;-74
2023/04/05 05:40:45;;;;;;;4.30;2.07;;;;;;;;;;4962387;28;20254;-74
2023/04/05 05:43:11;;;;;;;2.40;2.17;;;;;;;;;;4972376;28;20228;-73
2023/04/05 05:45:39;;;;;;;4.67;2.60;;;;;;;;;;4947639;28;20218;-73
2023/04/05 05:48:04;;;;;;;4.53;2.47;;;;;;;;;;4949200;28;20245;-74
2023/04/05 05:50:31;;;;;;;4.23;2.50;;;;;;;;;;4980516;28;20988;-74
2023/04/05 05:53:00;;;;;;;2.77;2.20;;;;;;;;;;4959944;28;20242;-74
2023/04/05 05:55:25;;;;;;;2.73;2.30;;;;;;;;;;4966914;28;20250;-71
2023/04/05 05:57:54;;;;;;;3.30;2.23;;;;;;;;;;4972222;28;20228;-74
2023/04/05 06:00:22;;;;;;;5.43;2.67;;;;;;;;;;4966475;28;20230;-74
2023/04/05 06:02:48;;;;;;;5.20;2.37;;;;;;;;;;4963507;28;20222;-74
2023/04/05 06:05:13;;;;;;;4.80;2.60;;;;;;;;;;4962479;28;20225;-74
2023/04/05 06:07:41;;;;;;;5.47;2.70;;;;;;;;;;4959756;28;20584;-74
2023/04/05 06:10:12;;;;;;;4.67;3.07;;;;;;;;;;4986878;28;20215;-74
2023/04/05 06:12:37;;;;;;;3.50;2.30;;;;;;;;;;4972254;28;20657;-73
2023/04/05 06:15:03;;;;;;;3.57;2.50;;;;;;;;;;4984763;28;20268;-74
2023/04/05 06:17:29;;;;;;;3.03;2.50;;;;;;;;;;4982247;28;20313;-73
2023/04/05 06:19:57;;;;;;;3.07;2.40;;;;;;;;;;4973703;28;20237;-73
2023/04/05 06:22:26;;;;;;;3.93;2.53;;;;;;;;;;4966843;28;20230;-73
2023/04/05 06:24:54;;;;;;;7.73;2.50;;;;;;;;;;4977093;28;20222;-71
2023/04/05 06:27:19;;;;;;;3.93;2.60;;;;;;;;;;4992897;28;20820;-74
2023/04/05 06:29:47;;;;;;;3.33;2.43;;;;;;;;;;4966297;28;20217;-73
2023/04/05 06:32:13;;;;;;;3.93;2.57;;;;;;;;;;4988377;28;20217;-74
2023/04/05 06:34:38;;;;;;;3.73;2.37;;;;;;;;;;4955403;28;20229;-74
2023/04/05 06:37:05;;;;;;;3.80;2.50;;;;;;;;;;4979435;28;20253;-74
2023/04/05 06:39:37;;;;;;;5.20;2.60;;;;;;;;;;4960138;28;20214;-72
2023/04/05 06:42:03;;;;;;;4.43;2.50;;;;;;;;;;4993214;28;20230;-72
2023/04/05 06:44:38;;;;;;;3.13;2.67;;;;;;;;;;4964466;28;20213;-72
2023/04/05 06:47:05;;;;;;;4.63;2.57;;;;;;;;;;4977074;28;20881;-72
2023/04/05 06:49:31;;;;;;;5.97;2.90;;;;;;;;;;4957200;28;20894;-73
2023/04/05 06:51:56;;;;;;;5.33;3.17;;;;;;;;;;4983008;28;20275;-73
2023/04/05 06:54:24;;;;;;;3.13;2.83;;;;;;;;;;4972124;28;20281;-73
2023/04/05 06:56:50;;;;;;;9.83;5.97;;;;;;;;;;4973457;28;20225;-72
2023/04/05 06:59:18;;;;;;;9.73;5.77;;;;;;;;;;4951209;28;20214;-73
2023/04/05 07:01:44;;;;;;;5.13;3.73;;;;;;;;;;4962625;28;20293;-73
2023/04/05 07:04:09;;;;;;;4.83;3.43;;;;;;;;;;4983160;28;20696;-75
2023/04/05 07:06:37;;;;;;;5.83;3.10;;;;;;;;;;4968020;28;20226;-72
2023/04/05 07:09:04;;;;;;;5.50;2.93;;;;;;;;;;4975889;28;20237;-73
2023/04/05 07:11:31;;;;;;;4.17;3.03;;;;;;;;;;4993684;23;20236;-80
2023/04/05 07:14:00;;;;;;;5.73;3.53;;;;;;;;;;4995401;28;20226;-80
2023/04/05 07:16:26;;;;;;;6.37;3.47;;;;;;;;;;5015335;28;20218;-80
2023/04/05 07:18:51;;;;;;;6.13;3.20;;;;;;;;;;4981150;28;20241;-79
2023/04/05 07:21:16;;;;;;;4.30;3.37;;;;;;;;;;4982880;28;20234;-80
2023/04/05 07:23:43;;;;;;;4.33;3.13;;;;;;;;;;4984457;28;20215;-81
2023/04/05 07:26:11;;;;;;;5.90;3.37;;;;;;;;;;4940271;28;20218;-80
2023/04/05 07:28:36;;;;;;;4.37;3.00;;;;;;;;;;4962824;28;20230;-80
2023/04/05 07:31:03;;;;;;;7.60;3.57;;;;;;;;;;4971064;28;20260;-80
2023/04/05 07:33:28;;;;;;;6.53;3.53;;;;;;;;;;4993235;28;20234;-80
2023/04/05 07:35:55;;;;;;;6.40;3.60;;;;;;;;;;4967961;28;20286;-80
2023/04/05 07:38:24;;;;;;;9.40;3.20;;;;;;;;;;4978327;28;20226;-81
2023/04/05 07:40:50;;;;;;;3.50;2.70;;;;;;;;;;4992797;28;20238;-81
2023/04/05 07:43:20;;;;;;;5.10;3.17;;;;;;;;;;4962959;28;20215;-81
2023/04/05 07:45:45;;;;;;;5.87;2.70;;;;;;;;;;4977031;28;20296;-81
2023/04/05 07:48:11;;;;;;;5.83;2.33;;;;;;;;;;4983286;28;20833;-81
2023/04/05 07:50:46;;;;;;;4.33;2.70;;;;;;;;;;4982544;28;20222;-80
2023/04/05 07:53:13;;;;;;;3.47;2.37;;;;;;;;;;4946190;28;20240;-81
2023/04/05 07:55:41;;;;;;;4.63;2.40;;;;;;;;;;4964669;28;20366;-81
2023/04/05 07:58:06;;;;;;;3.73;2.10;;;;;;;;;;4996913;28;20242;-81
2023/04/05 08:00:35;;;;;;;4.30;2.00;;;;;;;;;;4979140;28;20334;-83
2023/04/05 08:03:01;;;;;;;3.20;1.90;;;;;;;;;;4962025;28;20226;-82
2023/04/05 08:05:27;;;;;;;4.63;1.87;;;;;;;;;;4978211;28;20277;-82
2023/04/05 08:07:54;;;;;;;3.67;1.87;;;;;;;;;;4976453;28;20280;-82
2023/04/05 08:10:21;;;;;;;3.07;1.43;;;;;;;;;;4976815;28;20218;-83
2023/04/05 08:12:47;;;;;;;2.50;1.40;;;;;;;;;;4991878;28;20709;-82
2023/04/05 08:15:12;;;;;;;2.23;1.40;;;;;;;;;;4982455;28;20231;-82
2023/04/05 08:17:38;;;;;;;3.53;1.80;;;;;;;;;;4967397;28;20242;-80
2023/04/05 08:20:04;;;;;;;5.33;3.63;;;;;;;;;;4956139;28;20301;-82
2023/04/05 08:22:32;;;;;;;2.90;1.70;;;;;;;;;;4992420;28;20233;-82
2023/04/05 08:25:00;;;;;;;2.87;1.70;;;;;;;;;;4981440;28;20967;-82
2023/04/05 08:27:27;;;;;;;3.27;1.63;;;;;;;;;;4986394;28;20747;-81
2023/04/05 08:29:53;;;;;;;2.27;1.40;;;;;;;;;;4971832;28;20222;-82
2023/04/05 08:32:21;;;;;;;2.90;1.40;;;;;;;;;;4984269;28;20254;-81
2023/04/05 08:34:46;;;;;;;4.80;1.70;;;;;;;;;;4978810;28;20225;-81
2023/04/05 08:37:12;;;;;;;2.40;1.80;;;;;;;;;;4966427;28;20233;-80
2023/04/05 08:39:37;;;;;;;2.63;1.60;;;;;;;;;;4942882;28;20226;-80
2023/04/05 08:42:17;;;;;;;1.97;1.33;;;;;;;;;;4980318;28;20245;-81
2023/04/05 08:44:45;;;;;;;3.00;1.43;;;;;;;;;;4978610;28;20222;-81
2023/04/05 08:47:14;;;;;;;2.13;1.50;;;;;;;;;;4977131;28;20293;-80
2023/04/05 08:49:43;;;;;;;3.43;1.50;;;;;;;;;;4982649;28;20230;-82
2023/04/05 08:52:08;;;;;;;2.47;1.33;;;;;;;;;;4976579;28;20229;-79
2023/04/05 08:54:36;;;;;;;1.63;1.37;;;;;;;;;;4984531;28;20293;-81
2023/04/05 08:57:05;;;;;;;2.23;1.30;;;;;;;;;;4950815;28;20230;-82
2023/04/05 08:59:39;;;;;;;2.07;1.33;;;;;;;;;;4954561;28;20222;-82
2023/04/05 09:02:17;;;;;;;2.20;1.50;;;;;;;;;;4962733;28;20961;-82
2023/04/05 09:04:43;;;;;;;3.50;1.60;;;;;;;;;;4988149;28;21024;-83
2023/04/05 09:07:12;;;;;;;1.70;1.60;;;;;;;;;;4968248;28;20223;-82
2023/04/05 09:09:40;;;;;;;1.77;1.23;;;;;;;;;;4973986;28;20246;-80
2023/04/05 09:12:06;;;;;;;3.60;1.50;;;;;;;;;;4952107;28;20837;-81
2023/04/05 09:14:38;;;;;;;2.17;1.47;;;;;;;;;;4960220;28;20225;-81
2023/04/05 09:17:03;;;;;;;2.00;1.40;;;;;;;;;;4957213;28;20397;-81
2023/04/05 09:19:29;;;;;;;1.80;1.40;;;;;;;;;;4944126;28;20248;-82
2023/04/05 09:22:08;;;;;;;3.83;1.70;;;;;;;;;;4975557;28;20237;-82
2023/04/05 09:24:45;;;;;;;2.77;1.33;;;;;;;;;;4992996;28;20593;-82
2023/04/05 09:27:20;;;;;;;1.97;1.60;;;;;;;;;;4982100;28;20299;-84
2023/04/05 09:29:54;;;;;;;2.17;1.60;;;;;;;;;;4974406;28;20222;-81
2023/04/05 09:32:20;;;;;;;2.17;1.60;;;;;;;;;;4985096;28;20231;-81
2023/04/05 09:34:46;;;;;;;2.80;1.40;;;;;;;;;;4973434;28;20229;-81
2023/04/05 09:37:21;;;;;;;3.60;1.50;;;;;;;;;;4960656;28;20293;-79
2023/04/05 09:39:48;;;;;;;1.30;1.20;;;;;;;;;;4959401;28;20289;-82
2023/04/05 09:42:18;;;;;;;3.80;1.50;;;;;;;;;;4975079;28;20691;-80
2023/04/05 09:44:55;;;;;;;2.17;1.63;;;;;;;;;;4945644;28;20676;-82
2023/04/05 09:47:33;;;;;;;2.73;1.50;;;;;;;;;;4956334;28;20238;-82
2023/04/05 09:50:16;;;;;;;3.47;1.80;;;;;;;;;;4988199;28;20218;-82
2023/04/05 09:52:44;;;;;;;3.33;1.80;;;;;;;;;;4959191;28;20230;-81
2023/04/05 09:55:10;;;;;;;1.63;1.47;;;;;;;;;;4951924;28;20260;-80
2023/04/05 09:57:39;;;;;;;2.33;1.60;;;;;;;;;;4958993;28;20226;-81
2023/04/05 10:00:05;;;;;;;4.13;1.50;;;;;;;;;;4964466;28;20223;-81
2023/04/05 10:02:42;;;;;;;3.33;1.50;;;;;;;;;;4968110;28;20695;-82
2023/04/05 10:05:14;;;;;;;2.63;1.70;;;;;;;;;;4979813;28;20230;-81
2023/04/05 10:07:43;;;;;;;2.07;1.30;;;;;;;;;;4975151;28;20254;-81
2023/04/05 10:10:11;;;;;;;2.60;1.40;;;;;;;;;;4957478;28;20218;-80
2023/04/05 10:12:40;;;;;;;1.40;1.30;;;;;;;;;;4959826;28;20262;-80
2023/04/05 10:15:09;;;;;;;2.00;1.50;;;;;;;;;;4979546;28;20707;-79
2023/04/05 10:17:51;;;;;;;1.90;1.60;;;;;;;;;;4970696;28;20305;-80
2023/04/05 10:20:21;;;;;;;3.27;1.30;;;;;;;;;;4974758;28;20619;-79
2023/04/05 10:23:11;;;;;;;1.87;1.57;;;;;;;;;;4970348;28;20249;-83
2023/04/05 10:25:52;;;;;;;1.87;1.40;;;;;;;;;;4976934;28;20269;-81
2023/04/05 10:28:34;;;;;;;1.80;1.40;;;;;;;;;;4968904;28;20230;-79
2023/04/05 10:31:18;;;;;;;3.20;1.20;;;;;;;;;;4989990;28;20233;-81
2023/04/05 10:33:46;;;;;;;1.73;1.30;;;;;;;;;;4957971;28;20260;-81
2023/04/05 10:36:36;;;;;;;2.20;1.20;;;;;;;;;;4951765;28;20726;-82
2023/04/05 10:39:28;;;;;;;1.30;1.20;;;;;;;;;;4954784;28;20237;-82
2023/04/05 10:42:23;;;;;;;1.53;1.03;;;;;;;;;;4974185;28;20242;-81
2023/04/05 10:44:52;;;;;;;1.70;1.10;;;;;;;;;;4968378;28;20368;-81
2023/04/05 10:47:20;;;;;;;1.67;1.20;;;;;;;;;;4944151;28;20242;-82
2023/04/05 10:49:48;;;;;;;2.43;1.37;;;;;;;;;;4970478;28;20218;-80
2023/04/05 10:52:16;;;;;;;2.60;1.43;;;;;;;;;;4973473;28;20226;-81
2023/04/05 10:54:42;;;;;;;1.93;1.30;;;;;;;;;;4945905;28;20214;-82
2023/04/05 10:57:08;;;;;;;2.70;1.47;;;;;;;;;;4942471;28;20229;-80
2023/04/05 10:59:34;;;;;;;2.07;1.40;;;;;;;;;;4952366;28;20226;-80
2023/04/05 11:01:59;;;;;;;2.13;1.20;;;;;;;;;;4973275;28;20234;-78
2023/04/05 11:04:27;;;;;;;2.30;1.30;;;;;;;;;;4972584;28;20218;-80
2023/04/05 11:07:17;;;;;;;2.60;1.30;;;;;;;;;;4970092;28;20230;-79
2023/04/05 11:09:52;;;;;;;2.80;1.20;;;;;;;;;;4984263;28;20262;-80
2023/04/05 11:12:18;;;;;;;2.33;1.10;;;;;;;;;;4957105;28;20229;-80
2023/04/05 11:14:43;;;;;;;3.03;1.40;;;;;;;;;;4974560;28;20302;-80
2023/04/05 11:17:25;;;;;;;2.00;1.30;;;;;;;;;;4956932;28;20702;-83
2023/04/05 11:19:51;;;;;;;2.03;1.20;;;;;;;;;;4963740;28;20229;-84
2023/04/05 11:22:26;;;;;;;3.40;1.30;;;;;;;;;;4976287;28;20285;-84
2023/04/05 11:25:00;;;;;;;1.85;1.30;;;;;;;;;;4960555;28;20432;-84
2023/04/05 11:27:37;;;;;;;1.70;1.20;;;;;;;;;;4976028;28;20222;-80
2023/04/05 11:30:04;;;;;;;2.90;1.20;;;;;;;;;;4963781;28;20218;-82
2023/04/05 11:32:44;;;;;;;2.07;1.20;;;;;;;;;;4976988;28;20681;-83
2023/04/05 11:35:21;;;;;;;2.00;1.40;;;;;;;;;;4975021;28;20237;-83
2023/04/05 11:37:59;;;;;;;1.70;1.37;;;;;;;;;;4969970;28;20237;-82
2023/04/05 11:40:34;;;;;;;1.70;1.33;;;;;;;;;;4971901;28;20238;-82
2023/04/05 11:43:10;;;;;;;2.13;1.23;;;;;;;;;;4953694;28;20210;-81
2023/04/05 11:45:40;;;;;;;3.27;1.30;;;;;;;;;;4969806;28;20271;-80
2023/04/05 11:48:08;;;;;;;1.70;1.20;;;;;;;;;;4955719;28;20293;-82
2023/04/05 11:50:37;;;;;;;2.37;1.20;;;;;;;;;;4997091;28;20222;-81
2023/04/05 11:53:33;;;;;;;1.07;0.97;;;;;;;;;;4972177;28;20306;-81
2023/04/05 11:56:12;;;;;;;2.20;1.43;;;;;;;;;;4965241;28;20252;-81
2023/04/05 11:58:38;;;;;;;1.57;1.20;;;;;;;;;;4979701;28;20225;-81
2023/04/05 12:01:06;;;;;;;1.63;1.47;;;;;;;;;;4964880;28;20248;-83
2023/04/05 12:03:32;;;;;;;2.27;1.10;;;;;;;;;;4972224;28;20238;-81
2023/04/05 12:05:58;;;;;;;1.63;1.37;;;;;;;;;;5005222;28;20228;-83
2023/04/05 12:08:49;;;;;;;1.33;1.10;;;;;;;;;;4944383;28;20226;-83
2023/04/05 12:11:31;;;;;;;3.20;2.90;;;;;;;;;;4983422;28;20302;-80
2023/04/05 12:13:58;;;;;;;2.73;2.53;;;;;;;;;;4942843;28;20750;-82
2023/04/05 12:16:23;;;;;;;5.77;5.30;;;;;;;;;;4963855;28;20226;-83
2023/04/05 12:18:53;;;;;;;2.33;1.30;;;;;;;;;;4991331;28;20234;-83
2023/04/05 12:21:18;;;;;;;1.93;1.27;;;;;;;;;;4977265;28;20621;-81
2023/04/05 12:23:44;;;;;;;2.23;1.50;;;;;;;;;;4974537;28;20233;-81
2023/04/05 12:26:09;;;;;;;1.30;1.00;;;;;;;;;;4972970;28;20230;-81
2023/04/05 12:28:57;;;;;;;2.30;1.10;;;;;;;;;;4963162;28;20237;-81
2023/04/05 12:31:38;;;;;;;2.00;1.20;;;;;;;;;;4983982;28;20244;-83
2023/04/05 12:34:06;;;;;;;22.30;19.77;;;;;;;;;;4965264;28;20225;-82
2023/04/05 12:36:32;;;;;;;2.43;1.50;;;;;;;;;;4951630;28;20245;-80
2023/04/05 12:38:57;;;;;;;1.20;0.97;;;;;;;;;;4978519;28;20722;-81
2023/04/05 12:41:34;;;;;;;2.50;1.20;;;;;;;;;;4971960;28;20663;-84
2023/04/05 12:44:06;;;;;;;1.57;0.97;;;;;;;;;;4965769;28;20230;-81
2023/04/05 12:46:42;;;;;;;2.10;1.30;;;;;;;;;;4960409;28;20603;-82
2023/04/05 12:49:17;;;;;;;1.70;1.17;;;;;;;;;;4980637;28;20285;-84
2023/04/05 12:51:46;;;;;;;1.50;1.00;;;;;;;;;;4963482;28;20227;-83
2023/04/05 12:54:13;;;;;;;2.90;1.20;;;;;;;;;;4954954;28;20237;-83
2023/04/05 12:56:41;;;;;;;1.53;1.17;;;;;;;;;;4976026;28;20218;-83
2023/04/05 12:59:06;;;;;;;1.20;1.10;;;;;;;;;;4875309;28;20246;-84
2023/04/05 13:01:32;;;;;;;2.60;1.37;;;;;;;;;;4980130;28;20285;-83
2023/04/05 13:04:04;;;;;;;2.03;1.10;;;;;;;;;;4954057;28;20362;-83
2023/04/05 13:06:30;;;;;;;1.33;1.07;;;;;;;;;;4964292;28;20227;-83
2023/04/05 13:08:56;;;;;;;1.90;1.20;;;;;;;;;;4928383;28;20721;-84
2023/04/05 13:11:22;;;;;;;1.40;1.00;;;;;;;;;;4961445;28;20228;-83
2023/04/05 13:13:50;;;;;;;1.80;1.30;;;;;;;;;;4985548;28;20230;-82
2023/04/05 13:16:18;;;;;;;2.77;1.47;;;;;;;;;;4976904;28;20257;-83
2023/04/05 13:18:46;;;;;;;1.20;1.10;;;;;;;;;;4975239;28;20221;-84
2023/04/05 13:21:12;;;;;;;2.77;1.60;;;;;;;;;;4939828;28;20786;-83
2023/04/05 13:23:38;;;;;;;4.20;1.90;;;;;;;;;;4953552;28;20221;-81
2023/04/05 13:26:04;;;;;;;3.17;1.40;;;;;;;;;;4962968;28;20684;-82
2023/04/05 13:28:29;;;;;;;4.80;1.30;;;;;;;;;;4974436;28;20618;-85
2023/04/05 13:30:57;;;;;;;1.63;1.30;;;;;;;;;;4964133;28;20336;-83
2023/04/05 13:33:28;;;;;;;2.07;1.17;;;;;;;;;;4957855;28;20360;-82
2023/04/05 13:35:56;;;;;;;1.93;1.30;;;;;;;;;;4962144;28;20217;-84
2023/04/05 13:38:21;;;;;;;2.87;1.30;;;;;;;;;;4979257;28;20289;-82
2023/04/05 13:40:47;;;;;;;1.77;1.20;;;;;;;;;;4960668;28;20238;-83
2023/04/05 13:43:12;;;;;;;1.47;1.03;;;;;;;;;;4983296;28;20723;-82
2023/04/05 13:45:38;;;;;;;1.70;1.20;;;;;;;;;;4954803;28;20215;-80
2023/04/05 13:48:06;;;;;;;1.60;1.10;;;;;;;;;;4948951;28;20234;-81
2023/04/05 13:50:33;;;;;;;4.20;1.50;;;;;;;;;;4956616;28;20250;-82
2023/04/05 13:53:01;;;;;;;1.17;1.07;;;;;;;;;;4979524;28;20222;-82
2023/04/05 13:55:27;;;;;;;1.23;1.13;;;;;;;;;;4954941;28;20214;-81
2023/04/05 13:57:54;;;;;;;3.23;1.17;;;;;;;;;;4977431;28;20286;-82
2023/04/05 14:00:20;;;;;;;1.73;1.27;;;;;;;;;;4972146;28;20369;-85
2023/04/05 14:02:46;;;;;;;1.20;1.10;;;;;;;;;;4953192;28;20241;-84
2023/04/05 14:05:11;;;;;;;2.07;1.17;;;;;;;;;;4971868;28;20223;-82
2023/04/05 14:07:39;;;;;;;2.27;1.33;;;;;;;;;;4991477;28;20313;-83
2023/04/05 14:10:05;;;;;;;1.57;1.30;;;;;;;;;;4956479;28;20229;-83
2023/04/05 14:12:32;;;;;;;2.23;1.20;;;;;;;;;;4986332;28;20221;-85
2023/04/05 14:15:00;;;;;;;2.37;1.30;;;;;;;;;;4989716;28;20298;-85
2023/04/05 14:17:28;;;;;;;2.57;1.50;;;;;;;;;;4955263;28;20281;-84
2023/04/05 14:19:55;;;;;;;2.33;1.40;;;;;;;;;;4946032;28;20233;-81
2023/04/05 14:22:23;;;;;;;1.40;1.20;;;;;;;;;;4958601;28;20229;-85
2023/04/05 14:24:49;;;;;;;1.57;1.13;;;;;;;;;;4957700;28;20240;-84
2023/04/05 14:27:14;;;;;;;1.37;1.10;;;;;;;;;;4942362;28;20238;-86
2023/04/05 14:29:40;;;;;;;2.33;1.20;;;;;;;;;;4958397;28;20222;-83
2023/04/05 14:32:06;;;;;;;1.03;0.93;;;;;;;;;;4959722;28;20244;-84
2023/04/05 14:34:35;;;;;;;1.93;1.10;;;;;;;;;;4954678;28;20257;-84
2023/04/05 14:37:02;;;;;;;1.17;0.93;;;;;;;;;;4958074;28;20240;-85
2023/04/05 14:39:28;;;;;;;2.13;1.10;;;;;;;;;;4940532;28;20228;-82
2023/04/05 14:41:55;;;;;;;1.20;1.00;;;;;;;;;;4955384;28;20231;-84
2023/04/05 14:44:24;;;;;;;1.30;1.20;;;;;;;;;;4976968;28;20229;-84
2023/04/05 14:46:50;;;;;;;2.87;1.10;;;;;;;;;;4975981;28;20280;-83
2023/04/05 14:49:16;;;;;;;1.60;1.00;;;;;;;;;;4983336;28;20249;-84
2023/04/05 14:51:42;;;;;;;1.80;1.13;;;;;;;;;;4979522;28;20222;-84
2023/04/05 14:54:14;;;;;;;1.27;1.17;;;;;;;;;;4959242;28;20221;-84
2023/04/05 14:56:42;;;;;;;1.77;1.10;;;;;;;;;;4963420;28;20218;-86
2023/04/05 14:59:10;;;;;;;1.60;1.23;;;;;;;;;;4982857;28;20635;-84
2023/04/05 15:01:40;;;;;;;1.60;1.20;;;;;;;;;;4967408;28;20250;-87